KRSTKCKC

Guest
Details From KRST - Rochester Intl
To KCKC - GRAND MARAIS COOK CO
Flight Number -
Tags generated
Created
Modified
Stats Distance 291 nm / 539 km
Max Altitude 28,700 ft / 8,748 m
Waypoints 4
Social Downloads 0
Likes 0
Share VATSIM

Download

Looking for another format? Having issues loading an existing format? Contact us
Advertisement - Login to hide

Notes

Basic altitude profile: - Ascent Rate: 500ft/min - Ascent Speed: 60kts - Cruise Altitude: 10000ft - Cruise Speed: 150kts - Descent Rate: 500ft/min - Descent Speed: 90kts Options: - Use NATs: yes - Use PACOTS: yes - Use low airways: no - Use high airways: yes

Route

KRST GEP J21 DLH KCKC

ID Type Via Altitude (ft/m) Position (lat/lon) Dist (leg/tot) Name
O KRST APT - 0 / 0 43.90786 / -92.50008 - / 0 nm Rochester Intl
GEP VOR - 28,700 / 8,748 45.14569 / -93.37319 83 / 83 nm GOPHER VORTAC
DLH VOR J21 (AWY-HI) 19,700 / 6,005 46.80217 / -92.20286 110 / 194 nm DULUTH VORTAC
O KCKC APT - 0 / 0 47.83834 / -90.38295 96 / 290 nm GRAND MARAIS COOK CO

Altitude Profile

Advertisement - Login to hide

Weather


0- 5 10 15 20 25 30 35+ Temperature / °C

Clouds and Precipitation
Forecast for 2019-11-20 06:00 UTC. Updated an hour ago

Ground ~20,000 ft ~40,000 ft Winds

KRST

Details ICAO KRST (RST)
Name Rochester Intl
Region United States
Timezone America/Chicago (UTC-6.0)
Stats Elevation 1,317 ft / 401 m (AMSL)
Location 43.907900° -92.500100°
Runways 2
Magnetic Variation 0.437° W

METAR

KRST 200454Z 27005KT 10SM FEW015 OVC028 02/01 A2998 RMK AO2 SLP165 T00220011

Decode

TAF

TAF AMD KRST 200322Z 2003/2024 28006KT P6SM BKN015 FM201200 14005KT 5SM BR SCT015 BKN200 FM201600 14013G24KT P6SM OVC070

Decode

Departure Runways

ID Width Length Bearing (true/mag) Surface Threshold Overrun Markings Lighting
02 150 ft / 46 m 7,308 ft / 2,227 m 26.42° / 26.85° CONCRETE 0 ft / 0 m 0 ft / 0 m APP EDGE THRESHOLD REIL-OMNI
13 150 ft / 46 m 9,043 ft / 2,756 m 132.25° / 132.69° CONCRETE 0 ft / 0 m 0 ft / 0 m PREC-APP CENTERLINE EDGE THRESHOLD MALSR
20 150 ft / 46 m 7,308 ft / 2,227 m 206.43° / 206.86° CONCRETE 0 ft / 0 m 0 ft / 0 m APP EDGE THRESHOLD REIL-OMNI
31 150 ft / 46 m 9,043 ft / 2,756 m 312.27° / 312.70° CONCRETE 0 ft / 0 m 0 ft / 0 m PREC-APP CENTERLINE EDGE THRESHOLD MALSR

KCKC

Details ICAO KCKC (GRM)
Name Grand Marais/Cook County Airport
Region United States
Timezone America/Chicago (UTC-6.0)
Stats Elevation 1,803 ft / 550 m (AMSL)
Location 47.838400° -90.383000°
Runways 1
Magnetic Variation 2.762° W

METAR

KCKC 200455Z AUTO 00000KT 1/2SM FZFG OVC002 M01/M02 A2986 RMK AO2

Decode

TAF

Not found

Destination Runways

ID Width Length Bearing (true/mag) Surface Threshold Overrun Markings Lighting
10 75 ft / 23 m 4,190 ft / 1,277 m 94.70° / 97.47° ASPHALT 0 ft / 0 m 0 ft / 0 m APP EDGE THRESHOLD REIL-OMNI
28 75 ft / 23 m 4,190 ft / 1,277 m 274.72° / 277.48° ASPHALT 0 ft / 0 m 0 ft / 0 m APP EDGE THRESHOLD REIL-OMNI

Popular Alternatives